Time;durP1;ratioP1;P1;durP2;ratioP2;P2;SDS_P1;SDS_P2;PMS_P1;PMS_P2;Temp;Humidity;BMP_temperature;BMP_pressure;BME280_temperature;BME280_humidity;BME280_pressure;Samples;Min_cycle;Max_cycle;Signal;HPM_P1;HPM_P2
2023/11/06 00:26:56;;;;;;;0.10;0.10;;;9.80;99.90;;;;;;6300055;22;20019;-88
2023/11/06 00:29:22;;;;;;;0.10;0.10;;;;;;;;;;6179679;23;20024;-87
2023/11/06 00:31:48;;;;;;;0.10;0.10;;;;;;;;;;6180306;23;19997;-87
2023/11/06 00:34:14;;;;;;;0.10;0.10;;;;;;;;;;6179402;23;20028;-87
2023/11/06 00:36:40;;;;;;;0.00;0.00;;;10.00;99.90;;;;;;6181543;23;20012;-87
2023/11/06 00:39:07;;;;;;;0.00;0.00;;;;;;;;;;6184700;23;20008;-87
2023/11/06 00:41:33;;;;;;;0.10;0.10;;;;;;;;;;6211115;23;20032;-86
2023/11/06 00:43:59;;;;;;;0.05;0.05;;;;;;;;;;6211628;23;20776;-87
2023/11/06 00:46:25;;;;;;;0.00;0.00;;;;;;;;;;6208875;23;20020;-87
2023/11/06 00:48:51;;;;;;;0.00;0.00;;;;;;;;;;6211570;23;20009;-87
2023/11/06 00:51:17;;;;;;;0.00;0.00;;;;;;;;;;6210346;23;20055;-87
2023/11/06 00:53:43;;;;;;;0.00;0.00;;;10.10;99.90;;;;;;6210495;23;20008;-87
2023/11/06 00:56:09;;;;;;;0.10;0.10;;;;;;;;;;6185059;23;20352;-87
2023/11/06 00:58:35;;;;;;;0.00;0.00;;;;;;;;;;6210581;23;20007;-87
2023/11/06 01:01:01;;;;;;;0.00;0.00;;;;;;;;;;6211293;23;20032;-88
2023/11/06 01:03:27;;;;;;;0.00;0.00;;;;;;;;;;6209910;23;20012;-86
2023/11/06 01:05:52;;;;;;;0.00;0.00;;;10.00;99.90;;;;;;6210220;23;20436;-88
2023/11/06 01:08:18;;;;;;;0.00;0.00;;;;;;;;;;6185100;23;20399;-87
2023/11/06 01:10:44;;;;;;;0.00;0.00;;;;;;;;;;6210247;23;20004;-87
2023/11/06 01:13:13;;;;;;;0.10;0.10;;;9.90;99.90;;;;;;6211185;23;20001;-88
2023/11/06 01:15:39;;;;;;;0.00;0.00;;;;;;;;;;6185080;23;20091;-87
2023/11/06 01:18:04;;;;;;;0.00;0.00;;;;;;;;;;6210249;23;20036;-88
2023/11/06 01:20:30;;;;;;;0.00;0.00;;;;;;;;;;6211314;23;20036;-86
2023/11/06 01:22:56;;;;;;;0.10;0.10;;;;;;;;;;6211021;23;20470;-87
2023/11/06 01:25:22;;;;;;;0.00;0.00;;;;;;;;;;6212302;23;20331;-86
2023/11/06 01:27:48;;;;;;;0.00;0.00;;;;;;;;;;6211773;23;20432;-88
2023/11/06 01:30:14;;;;;;;0.10;0.10;;;;;;;;;;6212371;23;20004;-87
2023/11/06 01:32:40;;;;;;;0.10;0.10;;;;;;;;;;6212269;23;20009;-87
2023/11/06 01:35:06;;;;;;;0.00;0.00;;;;;;;;;;6212551;23;20009;-87
2023/11/06 01:37:32;;;;;;;0.10;0.10;;;;;;;;;;6212362;23;20000;-86
2023/11/06 01:39:58;;;;;;;0.00;0.00;;;;;;;;;;6212607;23;20008;-88
2023/11/06 01:42:24;;;;;;;0.10;0.10;;;;;;;;;;6213116;23;20003;-86
2023/11/06 01:44:50;;;;;;;0.00;0.00;;;;;;;;;;6212200;23;20008;-88
2023/11/06 01:47:16;;;;;;;0.08;0.08;;;;;;;;;;6211827;23;20034;-87
2023/11/06 01:49:46;;;;;;;0.00;0.00;;;10.20;99.90;;;;;;6212975;23;20428;-87
2023/11/06 01:52:17;;;;;;;0.10;0.10;;;10.20;99.90;;;;;;6186906;23;20004;-87
2023/11/06 01:54:43;;;;;;;0.00;0.00;;;;;;;;;;6186736;23;20116;-87
2023/11/06 01:57:09;;;;;;;0.10;0.10;;;;;;;;;;6211966;23;20036;-87
2023/11/06 01:59:35;;;;;;;0.00;0.00;;;;;;;;;;6211185;23;20003;-87
2023/11/06 02:02:05;;;;;;;0.00;0.00;;;10.00;99.90;;;;;;6212011;23;20001;-87
2023/11/06 02:04:31;;;;;;;0.00;0.00;;;;;;;;;;6187748;23;20035;-86
2023/11/06 02:06:58;;;;;;;0.00;0.00;;;10.00;99.90;;;;;;6213087;23;19997;-88
2023/11/06 02:09:25;;;;;;;0.00;0.00;;;;;;;;;;6187727;23;20008;-87
2023/11/06 02:11:51;;;;;;;0.00;0.00;;;;;;;;;;6211150;23;20012;-86
2023/11/06 02:14:17;;;;;;;0.00;0.00;;;10.00;99.90;;;;;;6212082;23;20008;-86
2023/11/06 02:16:43;;;;;;;0.00;0.00;;;;;;;;;;6185463;23;20067;-86
2023/11/06 02:19:09;;;;;;;0.05;0.05;;;10.00;99.90;;;;;;6214057;23;20012;-88
2023/11/06 02:21:35;;;;;;;0.10;0.10;;;;;;;;;;6187606;23;20040;-87
2023/11/06 02:24:02;;;;;;;0.00;0.00;;;10.00;99.90;;;;;;6215180;23;19996;-87
2023/11/06 02:26:29;;;;;;;0.08;0.08;;;;;;;;;;6187388;23;20012;-88
2023/11/06 02:28:55;;;;;;;0.10;0.10;;;;;;;;;;6212666;23;20023;-87
2023/11/06 02:31:21;;;;;;;0.00;0.00;;;10.00;99.90;;;;;;6212356;23;20351;-87
2023/11/06 02:33:47;;;;;;;0.00;0.00;;;;;;;;;;6188694;23;20087;-88
2023/11/06 02:36:13;;;;;;;0.00;0.00;;;;;;;;;;6212676;23;20042;-88
2023/11/06 02:38:39;;;;;;;0.00;0.00;;;;;;;;;;6211897;23;20008;-88
2023/11/06 02:41:05;;;;;;;0.00;0.00;;;;;;;;;;6212928;23;20030;-87
2023/11/06 02:43:31;;;;;;;0.10;0.10;;;;;;;;;;6211826;23;20008;-86
2023/11/06 02:45:56;;;;;;;0.00;0.00;;;;;;;;;;6212389;23;20008;-88
2023/11/06 02:48:23;;;;;;;0.10;0.10;;;;;;;;;;6213992;23;20320;-88
2023/11/06 02:50:49;;;;;;;0.03;0.03;;;;;;;;;;6211775;23;20032;-88
2023/11/06 02:53:15;;;;;;;0.00;0.00;;;;;;;;;;6211624;23;20313;-87
2023/11/06 02:55:41;;;;;;;0.00;0.00;;;;;;;;;;6211546;23;20005;-86
2023/11/06 02:58:07;;;;;;;0.00;0.00;;;;;;;;;;6211728;23;20004;-88
2023/11/06 03:00:33;;;;;;;0.00;0.00;;;;;;;;;;6211611;23;20004;-87
2023/11/06 03:02:59;;;;;;;0.00;0.00;;;;;;;;;;6213782;23;20339;-87
2023/11/06 03:05:25;;;;;;;0.00;0.00;;;;;;;;;;6212883;23;20008;-87
2023/11/06 03:07:51;;;;;;;0.00;0.00;;;;;;;;;;6212644;23;20496;-88
2023/11/06 03:10:17;;;;;;;0.00;0.00;;;;;;;;;;6212570;23;20008;-87
2023/11/06 03:12:42;;;;;;;0.00;0.00;;;10.30;99.90;;;;;;6211628;23;20046;-86
2023/11/06 03:15:10;;;;;;;0.00;0.00;;;10.30;99.90;;;;;;6187004;23;20005;-86
2023/11/06 03:17:36;;;;;;;0.00;0.00;;;;;;;;;;6187060;23;20309;-88
2023/11/06 03:20:06;;;;;;;0.00;0.00;;;;;;;;;;6212405;23;20016;-88
2023/11/06 03:22:33;;;;;;;0.00;0.00;;;;;;;;;;6209715;23;20001;-87
2023/11/06 03:24:58;;;;;;;0.08;0.08;;;10.50;99.90;;;;;;6212039;23;20083;-89
2023/11/06 03:27:24;;;;;;;0.00;0.00;;;;;;;;;;6205892;23;20001;-86
2023/11/06 03:29:50;;;;;;;0.00;0.00;;;;;;;;;;6181782;23;20008;-89
2023/11/06 03:32:16;;;;;;;0.00;0.00;;;;;;;;;;6182470;23;20033;-87
2023/11/06 03:34:44;;;;;;;0.00;0.00;;;10.60;99.90;;;;;;6182018;23;20056;-87
2023/11/06 03:37:11;;;;;;;0.00;0.00;;;;;;;;;;6181528;23;20005;-88
2023/11/06 03:39:37;;;;;;;0.00;0.00;;;;;;;;;;6180851;23;20055;-87
2023/11/06 03:42:03;;;;;;;0.00;0.00;;;;;;;;;;6181943;23;20071;-87
2023/11/06 03:44:28;;;;;;;0.00;0.00;;;10.60;99.90;;;;;;6181736;23;20432;-87
2023/11/06 03:46:54;;;;;;;0.00;0.00;;;;;;;;;;6182059;23;20023;-87
2023/11/06 03:49:21;;;;;;;0.00;0.00;;;;;;;;;;6181050;23;20005;-87
2023/11/06 03:51:46;;;;;;;0.00;0.00;;;10.70;99.90;;;;;;6181793;23;20009;-87
2023/11/06 03:54:12;;;;;;;0.00;0.00;;;10.70;99.90;;;;;;6181162;23;20005;-86
2023/11/06 03:56:37;;;;;;;0.10;0.10;;;10.70;99.90;;;;;;6182110;23;20005;-88
2023/11/06 03:59:04;;;;;;;0.00;0.00;;;;;;;;;;6180868;23;20335;-86
2023/11/06 04:01:34;;;;;;;0.00;0.00;;;10.70;99.90;;;;;;6181318;23;20176;-88
2023/11/06 04:04:00;;;;;;;;;;;10.70;99.90;;;;;;6182198;23;20013;-87
2023/11/06 04:06:26;;;;;;;0.00;0.00;;;;;;;;;;6180905;23;20487;-87
2023/11/06 04:08:52;;;;;;;0.00;0.00;;;;;;;;;;6181346;23;20035;-88
2023/11/06 04:11:18;;;;;;;0.00;0.00;;;;;;;;;;6182414;23;20071;-87
2023/11/06 04:13:44;;;;;;;0.00;0.00;;;;;;;;;;6182280;23;20001;-88
2023/11/06 04:16:10;;;;;;;0.00;0.00;;;;;;;;;;6180844;23;19997;-87
2023/11/06 04:18:36;;;;;;;0.00;0.00;;;10.80;99.90;;;;;;6181530;23;20140;-88
2023/11/06 04:21:03;;;;;;;0.00;0.00;;;10.80;99.90;;;;;;6180988;23;20056;-87
2023/11/06 04:23:29;;;;;;;0.00;0.00;;;;;;;;;;6183862;23;20424;-87
2023/11/06 04:25:55;;;;;;;0.00;0.00;;;10.80;99.90;;;;;;6181381;23;20010;-88
2023/11/06 04:28:21;;;;;;;0.00;0.00;;;;;;;;;;6180043;23;20019;-87
2023/11/06 04:30:46;;;;;;;0.00;0.00;;;;;;;;;;6180495;23;20017;-87
2023/11/06 04:33:12;;;;;;;0.00;0.00;;;;;;;;;;6181031;23;20059;-88
2023/11/06 04:35:38;;;;;;;0.00;0.00;;;;;;;;;;6180136;23;20001;-86
2023/11/06 04:38:04;;;;;;;0.00;0.00;;;10.70;99.90;;;;;;6181896;23;20044;-87
2023/11/06 04:40:30;;;;;;;0.00;0.00;;;;;;;;;;6181332;23;20494;-87
2023/11/06 04:42:56;;;;;;;0.00;0.00;;;;;;;;;;6181674;23;20425;-88
2023/11/06 04:45:22;;;;;;;0.00;0.00;;;;;;;;;;6181667;23;20028;-88
2023/11/06 04:47:48;;;;;;;0.00;0.00;;;;;;;;;;6181890;23;20433;-87
2023/11/06 04:50:14;;;;;;;0.00;0.00;;;;;;;;;;6180500;23;20012;-87
2023/11/06 04:52:40;;;;;;;0.00;0.00;;;;;;;;;;6181189;23;20007;-88
2023/11/06 04:55:06;;;;;;;0.00;0.00;;;10.60;99.90;;;;;;6180924;23;20087;-88
2023/11/06 04:57:32;;;;;;;0.00;0.00;;;;;;;;;;6180428;23;20457;-87
2023/11/06 04:59:58;;;;;;;0.10;0.10;;;;;;;;;;6182141;23;20016;-87
2023/11/06 05:02:25;;;;;;;0.00;0.00;;;10.60;99.90;;;;;;6181848;23;20086;-88
2023/11/06 05:04:51;;;;;;;0.00;0.00;;;10.60;99.90;;;;;;6182810;23;20009;-88
2023/11/06 05:07:17;;;;;;;0.00;0.00;;;;;;;;;;6183671;23;20012;-87
2023/11/06 05:09:43;;;;;;;0.00;0.00;;;;;;;;;;6182718;23;20194;-88
2023/11/06 05:12:09;;;;;;;0.00;0.00;;;10.80;99.90;;;;;;6183080;23;20012;-87
2023/11/06 05:14:35;;;;;;;0.00;0.00;;;;;;;;;;6183279;23;20059;-88
2023/11/06 05:17:01;;;;;;;0.00;0.00;;;;;;;;;;6181980;23;20009;-88
2023/11/06 05:19:27;;;;;;;0.00;0.00;;;;;;;;;;6183043;23;20329;-87
2023/11/06 05:21:52;;;;;;;0.00;0.00;;;;;;;;;;6181890;23;20020;-87
2023/11/06 05:24:19;;;;;;;0.00;0.00;;;;;;;;;;6182754;23;19997;-87
2023/11/06 05:26:45;;;;;;;0.00;0.00;;;10.70;99.90;;;;;;6183645;23;20016;-88
2023/11/06 05:29:11;;;;;;;0.00;0.00;;;;;;;;;;6179478;23;20013;-87
2023/11/06 05:31:37;;;;;;;0.00;0.00;;;;;;;;;;6183155;23;20005;-87
2023/11/06 05:34:03;;;;;;;0.00;0.00;;;;;;;;;;6181531;23;20092;-87
2023/11/06 05:36:29;;;;;;;0.00;0.00;;;;;;;;;;6182165;23;20036;-87
2023/11/06 05:38:56;;;;;;;0.00;0.00;;;10.70;99.90;;;;;;6181214;23;20005;-87
2023/11/06 05:41:22;;;;;;;0.00;0.00;;;;;;;;;;6181723;23;20498;-87
2023/11/06 05:43:49;;;;;;;0.00;0.00;;;;;;;;;;6182024;23;20010;-88
2023/11/06 05:46:16;;;;;;;0.00;0.00;;;10.70;99.90;;;;;;6182881;23;20011;-87
2023/11/06 05:48:42;;;;;;;0.00;0.00;;;;;;;;;;6184068;23;20088;-89
2023/11/06 05:51:08;;;;;;;0.00;0.00;;;;;;;;;;6182497;23;20079;-87
2023/11/06 05:53:34;;;;;;;0.00;0.00;;;;;;;;;;6183450;23;20013;-87
2023/11/06 05:56:00;;;;;;;0.00;0.00;;;;;;;;;;6182409;23;20008;-87
2023/11/06 05:58:25;;;;;;;0.00;0.00;;;10.60;99.90;;;;;;6181534;23;20001;-87
2023/11/06 06:00:51;;;;;;;0.00;0.00;;;10.50;99.90;;;;;;6182164;23;20340;-86
2023/11/06 06:03:20;;;;;;;0.10;0.10;;;;;;;;;;6184245;23;20009;-88
2023/11/06 06:05:46;;;;;;;0.00;0.00;;;;;;;;;;6183552;23;20127;-86
2023/11/06 06:08:12;;;;;;;0.00;0.00;;;;;;;;;;6183806;23;20027;-88
2023/11/06 06:10:38;;;;;;;0.00;0.00;;;;;;;;;;6184492;23;20009;-88
2023/11/06 06:13:04;;;;;;;0.00;0.00;;;;;;;;;;6182636;23;20421;-87
2023/11/06 06:15:30;;;;;;;0.00;0.00;;;;;;;;;;6183508;23;20046;-88
2023/11/06 06:17:56;;;;;;;0.00;0.00;;;;;;;;;;6183816;23;20025;-89
2023/11/06 06:20:22;;;;;;;0.03;0.03;;;;;;;;;;6184687;23;20064;-88
2023/11/06 06:22:48;;;;;;;0.00;0.00;;;10.40;99.90;;;;;;6183436;23;20005;-86
2023/11/06 06:25:15;;;;;;;0.00;0.00;;;;;;;;;;6183577;23;20499;-86
2023/11/06 06:27:41;;;;;;;0.00;0.00;;;;;;;;;;6193602;23;20013;-87
2023/11/06 06:30:08;;;;;;;0.00;0.00;;;10.40;99.90;;;;;;6233431;23;20059;-87
2023/11/06 06:32:34;;;;;;;0.00;0.00;;;10.50;99.90;;;;;;6196524;23;20000;-87
2023/11/06 06:35:00;;;;;;;0.00;0.00;;;;;;;;;;6190685;23;20007;-87
2023/11/06 06:37:26;;;;;;;0.00;0.00;;;;;;;;;;6215777;23;20001;-86
2023/11/06 06:39:52;;;;;;;0.00;0.00;;;;;;;;;;6215967;23;20016;-88
2023/11/06 06:42:18;;;;;;;0.00;0.00;;;;;;;;;;6215903;23;20004;-87
2023/11/06 06:44:44;;;;;;;0.00;0.00;;;;;;;;;;6214539;23;20004;-87
2023/11/06 06:47:10;;;;;;;0.00;0.00;;;;;;;;;;6215155;23;20083;-87
2023/11/06 06:49:40;;;;;;;0.10;0.10;;;;;;;;;;6215063;23;20420;-88
2023/11/06 06:52:06;;;;;;;0.00;0.00;;;;;;;;;;6214730;23;20011;-87
2023/11/06 06:54:32;;;;;;;0.00;0.00;;;;;;;;;;6214337;23;20001;-87
2023/11/06 06:56:58;;;;;;;0.00;0.00;;;10.70;99.90;;;;;;6213930;23;20000;-86
2023/11/06 06:59:26;;;;;;;0.00;0.00;;;;;;;;;;6189297;23;20042;-87
2023/11/06 07:01:52;;;;;;;0.00;0.00;;;;;;;;;;6216675;23;20091;-88
2023/11/06 07:04:19;;;;;;;0.00;0.00;;;;;;;;;;6217333;23;20091;-88
2023/11/06 07:06:45;;;;;;;0.00;0.00;;;;;;;;;;6213415;23;20004;-87
2023/11/06 07:09:11;;;;;;;0.00;0.00;;;;;;;;;;6214334;23;20016;-86
2023/11/06 07:11:37;;;;;;;0.00;0.00;;;;;;;;;;6214908;23;20054;-86
2023/11/06 07:14:03;;;;;;;0.10;0.10;;;;;;;;;;6214372;23;20001;-87
2023/11/06 07:16:29;;;;;;;0.00;0.00;;;;;;;;;;6215002;23;20080;-87
2023/11/06 07:18:55;;;;;;;0.00;0.00;;;;;;;;;;6214236;23;20008;-87
2023/11/06 07:21:21;;;;;;;0.00;0.00;;;;;;;;;;6215990;23;20004;-86
2023/11/06 07:23:47;;;;;;;0.00;0.00;;;;;;;;;;6214558;23;20008;-86
2023/11/06 07:26:14;;;;;;;0.00;0.00;;;;;;;;;;6214728;23;20008;-87
2023/11/06 07:28:40;;;;;;;0.00;0.00;;;;;;;;;;6214140;23;20018;-86
2023/11/06 07:31:05;;;;;;;0.00;0.00;;;;;;;;;;6214116;23;20008;-86
2023/11/06 07:33:31;;;;;;;0.00;0.00;;;;;;;;;;6214747;23;20340;-85
2023/11/06 07:35:57;;;;;;;0.00;0.00;;;;;;;;;;6213898;23;20339;-86
2023/11/06 07:38:24;;;;;;;0.00;0.00;;;;;;;;;;6214577;23;20099;-87
2023/11/06 07:40:50;;;;;;;0.03;0.03;;;;;;;;;;6214699;23;20036;-86
2023/11/06 07:43:16;;;;;;;0.00;0.00;;;;;;;;;;6214538;23;20032;-87
2023/11/06 07:45:42;;;;;;;0.00;0.00;;;;;;;;;;6214284;23;20011;-88
2023/11/06 07:48:08;;;;;;;0.00;0.00;;;10.80;99.90;;;;;;6217075;23;20032;-88
2023/11/06 07:50:34;;;;;;;0.00;0.00;;;;;;;;;;6218309;23;20386;-87
2023/11/06 07:53:00;;;;;;;0.00;0.00;;;;;;;;;;6216516;23;20339;-85
2023/11/06 07:55:25;;;;;;;0.00;0.00;;;10.80;99.90;;;;;;6214952;23;20004;-87
2023/11/06 07:57:51;;;;;;;0.00;0.00;;;;;;;;;;6189106;23;20478;-87
2023/11/06 08:00:17;;;;;;;0.00;0.00;;;10.80;99.90;;;;;;6213937;23;20013;-86
2023/11/06 08:02:43;;;;;;;0.10;0.10;;;;;;;;;;6188864;23;20530;-87
2023/11/06 08:05:10;;;;;;;0.00;0.00;;;10.80;99.90;;;;;;6213908;23;20007;-86
2023/11/06 08:07:39;;;;;;;0.00;0.00;;;10.80;99.90;;;;;;6187848;23;20008;-87
2023/11/06 08:10:07;;;;;;;0.00;0.00;;;10.80;99.90;;;;;;6187082;23;20388;-86
2023/11/06 08:12:33;;;;;;;0.00;0.00;;;;;;;;;;6188675;23;20428;-87
2023/11/06 08:14:59;;;;;;;0.00;0.00;;;;;;;;;;6214120;23;20035;-86
2023/11/06 08:17:24;;;;;;;0.00;0.00;;;11.00;99.90;;;;;;6213855;23;20083;-88
2023/11/06 08:19:52;;;;;;;0.00;0.00;;;10.90;99.90;;;;;;6189188;23;20420;-86
2023/11/06 08:22:20;;;;;;;0.00;0.00;;;;;;;;;;6189631;23;20127;-87
2023/11/06 08:24:46;;;;;;;0.00;0.00;;;;;;;;;;6213755;23;20015;-86
2023/11/06 08:27:12;;;;;;;0.00;0.00;;;10.90;99.90;;;;;;6213346;23;20036;-87
2023/11/06 08:29:42;;;;;;;0.00;0.00;;;10.90;99.90;;;;;;6188212;23;20032;-87
2023/11/06 08:32:08;;;;;;;0.00;0.00;;;;;;;;;;6185198;23;20012;-88
2023/11/06 08:34:34;;;;;;;0.00;0.00;;;;;;;;;;6215315;23;20106;-86
2023/11/06 08:37:00;;;;;;;0.00;0.00;;;;;;;;;;6215425;23;20005;-87
2023/11/06 08:39:26;;;;;;;0.00;0.00;;;;;;;;;;6215243;23;20000;-86
2023/11/06 08:41:52;;;;;;;0.00;0.00;;;;;;;;;;6215552;23;20016;-87
2023/11/06 08:44:18;;;;;;;0.00;0.00;;;;;;;;;;6214965;23;20019;-88
2023/11/06 08:46:44;;;;;;;0.00;0.00;;;;;;;;;;6214986;23;20030;-88
2023/11/06 08:49:09;;;;;;;0.00;0.00;;;11.40;99.90;;;;;;6214214;23;20005;-86
2023/11/06 08:51:35;;;;;;;0.00;0.00;;;;;;;;;;6190901;23;20004;-86
2023/11/06 08:54:01;;;;;;;0.00;0.00;;;;;;;;;;6216469;23;20433;-87
2023/11/06 08:56:29;;;;;;;0.00;0.00;;;;;;;;;;6215607;23;20009;-88
2023/11/06 08:58:55;;;;;;;0.00;0.00;;;;;;;;;;6215207;23;20004;-88
2023/11/06 09:01:21;;;;;;;0.00;0.00;;;;;;;;;;6215129;23;20083;-86
2023/11/06 09:03:48;;;;;;;0.00;0.00;;;;;;;;;;6214899;23;20428;-87
2023/11/06 09:06:14;;;;;;;0.00;0.00;;;;;;;;;;6214437;23;20011;-87
2023/11/06 09:08:40;;;;;;;0.00;0.00;;;;;;;;;;6214786;23;20008;-86
2023/11/06 09:11:06;;;;;;;0.00;0.00;;;11.90;99.90;;;;;;6215245;23;20058;-87
2023/11/06 09:13:35;;;;;;;0.00;0.00;;;;;;;;;;6189736;23;20000;-87
2023/11/06 09:16:02;;;;;;;0.00;0.00;;;;;;;;;;6213721;23;20054;-86
2023/11/06 09:18:28;;;;;;;0.00;0.00;;;;;;;;;;6214585;23;20005;-89
2023/11/06 09:20:54;;;;;;;0.00;0.00;;;12.00;99.90;;;;;;6214435;23;20032;-87
2023/11/06 09:23:21;;;;;;;0.00;0.00;;;;;;;;;;6189359;23;20758;-86
2023/11/06 09:25:47;;;;;;;0.00;0.00;;;12.00;99.90;;;;;;6214905;23;20001;-87
2023/11/06 09:28:13;;;;;;;0.00;0.00;;;;;;;;;;6184514;23;20009;-88
2023/11/06 09:30:43;;;;;;;0.00;0.00;;;12.10;99.90;;;;;;6184794;23;20071;-86
2023/11/06 09:33:09;;;;;;;0.00;0.00;;;;;;;;;;6209816;23;20455;-87
2023/11/06 09:35:34;;;;;;;0.00;0.00;;;;;;;;;;6184897;23;20009;-88
2023/11/06 09:38:00;;;;;;;0.00;0.00;;;;;;;;;;6185213;23;20083;-87
2023/11/06 09:40:27;;;;;;;0.00;0.00;;;;;;;;;;6184128;23;20009;-88
2023/11/06 09:42:53;;;;;;;0.00;0.00;;;;;;;;;;6185305;23;20032;-87
2023/11/06 09:45:19;;;;;;;0.00;0.00;;;;;;;;;;6184658;23;20016;-87
2023/11/06 09:47:52;;;;;;;0.00;0.00;;;12.50;99.90;;;;;;6184739;23;20005;-87
2023/11/06 09:50:20;;;;;;;0.00;0.00;;;12.50;99.90;;;;;;6184401;23;20408;-87
2023/11/06 09:52:50;;;;;;;0.00;0.00;;;12.50;99.90;;;;;;6185435;23;20040;-87
2023/11/06 09:55:19;;;;;;;0.00;0.00;;;;;;;;;;6185286;23;20003;-86
2023/11/06 09:57:51;;;;;;;0.00;0.00;;;12.90;99.90;;;;;;6181977;23;20020;-87
2023/11/06 10:00:17;;;;;;;0.00;0.00;;;13.00;99.90;;;;;;6184973;23;20036;-87
2023/11/06 10:02:44;;;;;;;0.00;0.00;;;;;;;;;;6185172;23;20325;-89
2023/11/06 10:05:16;;;;;;;0.00;0.00;;;13.00;99.90;;;;;;6184903;23;20490;-88
2023/11/06 10:07:45;;;;;;;0.00;0.00;;;13.00;99.90;;;;;;6210115;23;20012;-87
2023/11/06 10:10:29;;;;;;;0.00;0.00;;;13.00;99.90;;;;;;6183742;23;20013;-86
2023/11/06 10:13:09;;;;;;;0.00;0.00;;;13.00;99.90;;;;;;6184749;23;20008;-87
2023/11/06 10:15:36;;;;;;;0.00;0.00;;;13.10;99.90;;;;;;6210349;23;20336;-87
2023/11/06 10:18:19;;;;;;;0.00;0.00;;;13.10;99.90;;;;;;6183925;23;20091;-86
2023/11/06 10:20:50;;;;;;;0.00;0.00;;;13.00;99.90;;;;;;6184256;23;20088;-86
2023/11/06 10:23:27;;;;;;;0.00;0.00;;;13.00;99.90;;;;;;6184525;23;20012;-87
2023/11/06 10:25:54;;;;;;;0.00;0.00;;;12.90;99.90;;;;;;6184761;23;20001;-87
2023/11/06 10:28:20;;;;;;;0.00;0.00;;;12.90;99.90;;;;;;6183631;23;20786;-89
2023/11/06 10:30:52;;;;;;;0.00;0.00;;;13.00;99.90;;;;;;6184024;23;20001;-88
2023/11/06 10:33:18;;;;;;;0.00;0.00;;;13.10;99.90;;;;;;6180698;23;20453;-87
2023/11/06 10:35:45;;;;;;;0.00;0.00;;;;;;;;;;6184245;23;20447;-86
2023/11/06 10:38:44;;;;;;;0.00;0.00;;;13.00;99.90;;;;;;6184214;23;20024;-87
2023/11/06 10:41:25;;;;;;;0.00;0.00;;;13.00;99.90;;;;;;6121369;23;20001;-87
2023/11/06 10:43:57;;;;;;;0.00;0.00;;;13.00;99.90;;;;;;6183660;23;20016;-86
2023/11/06 10:46:28;;;;;;;0.00;0.00;;;13.30;99.90;;;;;;6183217;23;20341;-88
2023/11/06 10:49:03;;;;;;;0.00;0.00;;;13.00;99.90;;;;;;6183893;23;19997;-86
2023/11/06 10:51:31;;;;;;;0.00;0.00;;;13.10;99.90;;;;;;6183468;23;20344;-87
2023/11/06 10:53:58;;;;;;;0.00;0.00;;;;;;;;;;6183695;23;20002;-87
2023/11/06 10:56:24;;;;;;;0.00;0.00;;;;;;;;;;6183169;23;20047;-87
2023/11/06 10:58:54;;;;;;;0.00;0.00;;;12.90;99.90;;;;;;6183298;23;20012;-87
2023/11/06 11:01:22;;;;;;;0.00;0.00;;;12.90;99.90;;;;;;6183154;23;20345;-88
2023/11/06 11:03:51;;;;;;;0.00;0.00;;;13.00;99.90;;;;;;6207464;23;20017;-87
2023/11/06 11:06:17;;;;;;;0.00;0.00;;;;;;;;;;6184336;23;20008;-86
2023/11/06 11:08:44;;;;;;;0.00;0.00;;;;;;;;;;6183799;23;20055;-87
2023/11/06 11:11:10;;;;;;;0.00;0.00;;;;;;;;;;6184233;23;20039;-89
2023/11/06 11:13:36;;;;;;;0.00;0.00;;;;;;;;;;6183129;23;20009;-86
2023/11/06 11:16:37;;;;;;;0.00;0.00;;;12.80;99.90;;;;;;6198726;23;20020;-87
2023/11/06 11:19:31;;;;;;;0.00;0.00;;;12.80;99.90;;;;;;6186458;23;20448;-86
2023/11/06 11:22:12;;;;;;;0.00;0.00;;;13.00;99.90;;;;;;6184083;23;20108;-84
2023/11/06 11:24:50;;;;;;;0.00;0.00;;;12.90;99.90;;;;;;6183556;23;20013;-87
2023/11/06 11:27:17;;;;;;;0.00;0.00;;;13.20;99.90;;;;;;6186333;23;20012;-88
2023/11/06 11:29:58;;;;;;;0.00;0.00;;;13.20;99.90;;;;;;6186855;23;20749;-87
2023/11/06 11:32:30;;;;;;;0.00;0.00;;;13.20;99.90;;;;;;6212055;23;20004;-88
2023/11/06 11:34:57;;;;;;;0.00;0.00;;;13.10;99.90;;;;;;6211541;23;20036;-89
2023/11/06 11:37:26;;;;;;;0.00;0.00;;;12.80;99.90;;;;;;6186271;23;20011;-86
2023/11/06 11:39:52;;;;;;;0.00;0.00;;;;;;;;;;6211788;23;20004;-88
2023/11/06 11:42:18;;;;;;;0.00;0.00;;;;;;;;;;6211785;23;20502;-87
2023/11/06 11:45:11;;;;;;;0.00;0.00;;;12.70;99.90;;;;;;6210001;23;20036;-88
2023/11/06 11:47:45;;;;;;;0.00;0.00;;;12.70;99.90;;;;;;6209669;23;20008;-88
2023/11/06 11:50:36;;;;;;;0.00;0.00;;;12.60;99.90;;;;;;6209066;23;20056;-87
2023/11/06 11:53:02;;;;;;;0.00;0.00;;;12.60;99.90;;;;;;6182826;23;20012;-87
2023/11/06 11:55:31;;;;;;;0.00;0.00;;;12.60;99.90;;;;;;6184233;23;20110;-87
2023/11/06 11:58:05;;;;;;;0.00;0.00;;;12.90;99.90;;;;;;6209119;23;20463;-88
2023/11/06 12:00:32;;;;;;;0.00;0.00;;;;;;;;;;6185338;23;20063;-87
2023/11/06 12:03:16;;;;;;;0.00;0.00;;;12.90;99.90;;;;;;6211584;23;20012;-88
2023/11/06 12:05:43;;;;;;;0.00;0.00;;;12.90;99.90;;;;;;6187763;23;20343;-86
2023/11/06 12:08:37;;;;;;;0.00;0.00;;;12.90;99.90;;;;;;6187851;23;20099;-88
2023/11/06 12:11:08;;;;;;;0.00;0.00;;;13.10;99.90;;;;;;6182459;23;20011;-86
2023/11/06 12:13:35;;;;;;;0.00;0.00;;;;;;;;;;6183376;23;20024;-87
2023/11/06 12:16:05;;;;;;;0.00;0.00;;;13.00;99.90;;;;;;6211299;23;20005;-88
2023/11/06 12:18:31;;;;;;;0.00;0.00;;;;;;;;;;6187127;23;20435;-87
2023/11/06 12:20:57;;;;;;;0.00;0.00;;;13.10;99.90;;;;;;6211325;23;20009;-88
2023/11/06 12:23:33;;;;;;;0.00;0.00;;;13.10;99.90;;;;;;6184747;23;20009;-88
2023/11/06 12:26:12;;;;;;;0.00;0.00;;;13.30;99.90;;;;;;6187301;23;20082;-88
2023/11/06 12:28:47;;;;;;;0.00;0.00;;;13.40;99.90;;;;;;6183910;23;20017;-88
2023/11/06 12:31:13;;;;;;;0.00;0.00;;;;;;;;;;6184626;23;20092;-87
2023/11/06 12:33:40;;;;;;;0.00;0.00;;;;;;;;;;6183717;23;20009;-88
2023/11/06 12:36:06;;;;;;;0.00;0.00;;;13.60;99.90;;;;;;6184239;23;20013;-87
2023/11/06 12:38:33;;;;;;;0.00;0.00;;;13.50;99.90;;;;;;6184173;23;20005;-87
2023/11/06 12:41:03;;;;;;;0.00;0.00;;;;;;;;;;6184389;23;20084;-88
2023/11/06 12:43:30;;;;;;;0.00;0.00;;;13.60;99.90;;;;;;6182799;23;20001;-87
2023/11/06 12:45:58;;;;;;;0.00;0.00;;;;;;;;;;6182044;23;20013;-87
2023/11/06 12:48:28;;;;;;;0.00;0.00;;;;;;;;;;6183222;23;20012;-88
2023/11/06 12:51:09;;;;;;;0.00;0.00;;;13.60;99.90;;;;;;6183757;23;20437;-87
2023/11/06 12:53:40;;;;;;;0.00;0.00;;;13.40;99.90;;;;;;6183321;23;20012;-87
2023/11/06 12:56:07;;;;;;;0.00;0.00;;;13.70;99.90;;;;;;6184446;23;20009;-88
2023/11/06 12:58:36;;;;;;;0.00;0.00;;;;;;;;;;6183574;23;20080;-87
2023/11/06 13:01:04;;;;;;;0.00;0.00;;;13.60;99.90;;;;;;6183963;23;20482;-87
2023/11/06 13:03:34;;;;;;;0.00;0.00;;;13.60;99.90;;;;;;6184345;23;20052;-87
2023/11/06 13:05:59;;;;;;;;;;;13.60;99.90;;;;;;6183571;23;20001;-88
2023/11/06 13:08:32;;;;;;;0.00;0.00;;;13.60;99.90;;;;;;6178857;23;19930;-88
2023/11/06 13:10:59;;;;;;;0.00;0.00;;;;;;;;;;6178988;23;20016;-89
2023/11/06 13:13:26;;;;;;;0.00;0.00;;;13.40;99.90;;;;;;6183568;23;20075;-87
2023/11/06 13:15:53;;;;;;;0.00;0.00;;;;;;;;;;6185002;23;20079;-88
2023/11/06 13:18:19;;;;;;;0.00;0.00;;;;;;;;;;6185324;23;20033;-87
2023/11/06 13:20:53;;;;;;;0.00;0.00;;;;;;;;;;6186695;23;20005;-88
2023/11/06 13:23:19;;;;;;;0.00;0.00;;;;;;;;;;6186398;23;20084;-88
2023/11/06 13:25:45;;;;;;;0.00;0.00;;;;;;;;;;6187548;23;20055;-87
2023/11/06 13:28:11;;;;;;;0.00;0.00;;;;;;;;;;6201482;23;20092;-87
2023/11/06 13:30:40;;;;;;;0.00;0.00;;;12.80;99.90;;;;;;6217958;23;20009;-88
2023/11/06 13:33:08;;;;;;;0.00;0.00;;;;;;;;;;6190831;23;20363;-88
2023/11/06 13:35:41;;;;;;;0.00;0.00;;;12.80;99.90;;;;;;6212862;23;20001;-87
2023/11/06 13:38:08;;;;;;;0.00;0.00;;;12.60;99.90;;;;;;6190558;23;20035;-88
2023/11/06 13:40:43;;;;;;;0.00;0.00;;;12.60;99.90;;;;;;6188605;23;20009;-88
2023/11/06 13:43:09;;;;;;;0.00;0.00;;;;;;;;;;6188480;23;20005;-87
2023/11/06 13:45:35;;;;;;;0.00;0.00;;;;;;;;;;6213813;23;20321;-87
2023/11/06 13:51:12;;;;;;;0.00;0.00;;;;;;;;;;6202450;23;20470;-88
2023/11/06 13:53:47;;;;;;;0.00;0.00;;;;;;;;;;6213136;23;20005;-88
2023/11/06 13:56:22;;;;;;;0.00;0.00;;;;;;;;;;6213853;23;20352;-86
2023/11/06 13:58:48;;;;;;;0.00;0.00;;;;;;;;;;6212077;23;20005;-88
2023/11/06 14:01:14;;;;;;;0.00;0.00;;;;;;;;;;6213355;23;20424;-89
2023/11/06 14:03:47;;;;;;;0.00;0.00;;;12.20;99.90;;;;;;6212681;23;20001;-88
2023/11/06 14:06:16;;;;;;;0.00;0.00;;;;;;;;;;6188223;23;20084;-87
2023/11/06 14:08:54;;;;;;;0.00;0.00;;;12.10;99.90;;;;;;6212158;23;20091;-87
2023/11/06 14:11:21;;;;;;;0.00;0.00;;;;;;;;;;6189554;23;20099;-87
2023/11/06 14:13:47;;;;;;;0.00;0.00;;;;;;;;;;6211765;23;20004;-89
2023/11/06 14:16:39;;;;;;;0.00;0.00;;;12.00;99.90;;;;;;6212299;23;20486;-87
2023/11/06 14:19:05;;;;;;;0.00;0.00;;;;;;;;;;6187830;23;20051;-89
2023/11/06 14:21:31;;;;;;;0.00;0.00;;;;;;;;;;6212221;23;20091;-88
2023/11/06 14:23:58;;;;;;;0.00;0.00;;;;;;;;;;6214100;23;20004;-88
2023/11/06 14:26:24;;;;;;;0.00;0.00;;;;;;;;;;6204312;23;20431;-89
2023/11/06 14:28:50;;;;;;;0.00;0.00;;;;;;;;;;6210236;23;20023;-88
2023/11/06 14:31:16;;;;;;;0.00;0.00;;;;;;;;;;6211607;23;20004;-88